sensor_id;sensor_type;location;lat;lon;timestamp;pressure;altitude;pressure_sealevel;temperature;humidity
67373;BME280;54257;54.496;18.412;2023-02-15T00:00:04;101496.75;;;3.36;89.75
67373;BME280;54257;54.496;18.412;2023-02-15T00:02:52;101493.77;;;3.44;90.11
67373;BME280;54257;54.496;18.412;2023-02-15T00:05:19;101495.02;;;3.47;89.89
67373;BME280;54257;54.496;18.412;2023-02-15T00:07:46;101490.16;;;3.48;89.48
67373;BME280;54257;54.496;18.412;2023-02-15T00:10:13;101487.36;;;3.46;89.09
67373;BME280;54257;54.496;18.412;2023-02-15T00:12:42;101487.69;;;3.44;88.88
67373;BME280;54257;54.496;18.412;2023-02-15T00:15:12;101483.52;;;3.42;88.82
67373;BME280;54257;54.496;18.412;2023-02-15T00:17:39;101486.92;;;3.40;88.73
67373;BME280;54257;54.496;18.412;2023-02-15T00:20:07;101486.64;;;3.39;88.83
67373;BME280;54257;54.496;18.412;2023-02-15T00:22:34;101485.95;;;3.38;88.70
67373;BME280;54257;54.496;18.412;2023-02-15T00:25:03;101485.88;;;3.40;88.79
67373;BME280;54257;54.496;18.412;2023-02-15T00:27:30;101484.96;;;3.41;88.97
67373;BME280;54257;54.496;18.412;2023-02-15T00:29:57;101477.29;;;3.42;88.99
67373;BME280;54257;54.496;18.412;2023-02-15T00:32:24;101474.33;;;3.46;89.19
67373;BME280;54257;54.496;18.412;2023-02-15T00:34:51;101468.05;;;3.48;89.23
67373;BME280;54257;54.496;18.412;2023-02-15T00:37:18;101464.23;;;3.49;89.18
67373;BME280;54257;54.496;18.412;2023-02-15T00:39:45;101464.78;;;3.50;89.06
67373;BME280;54257;54.496;18.412;2023-02-15T00:42:13;101462.33;;;3.51;89.09
67373;BME280;54257;54.496;18.412;2023-02-15T00:44:40;101460.15;;;3.51;88.84
67373;BME280;54257;54.496;18.412;2023-02-15T00:47:09;101457.98;;;3.51;88.97
67373;BME280;54257;54.496;18.412;2023-02-15T00:49:36;101455.52;;;3.55;89.28
67373;BME280;54257;54.496;18.412;2023-02-15T00:52:03;101455.16;;;3.59;89.16
67373;BME280;54257;54.496;18.412;2023-02-15T00:54:30;101455.87;;;3.60;88.74
67373;BME280;54257;54.496;18.412;2023-02-15T00:56:57;101453.41;;;3.64;88.97
67373;BME280;54257;54.496;18.412;2023-02-15T00:59:24;101451.63;;;3.70;89.07
67373;BME280;54257;54.496;18.412;2023-02-15T01:01:51;101453.42;;;3.74;89.11
67373;BME280;54257;54.496;18.412;2023-02-15T01:04:18;101451.91;;;3.76;88.81
67373;BME280;54257;54.496;18.412;2023-02-15T01:06:45;101447.77;;;3.77;88.54
67373;BME280;54257;54.496;18.412;2023-02-15T01:09:12;101449.06;;;3.74;87.90
67373;BME280;54257;54.496;18.412;2023-02-15T01:11:40;101445.86;;;3.72;87.88
67373;BME280;54257;54.496;18.412;2023-02-15T01:14:11;101446.64;;;3.71;87.88
67373;BME280;54257;54.496;18.412;2023-02-15T01:16:39;101442.67;;;3.65;87.81
67373;BME280;54257;54.496;18.412;2023-02-15T01:19:06;101434.32;;;3.58;87.48
67373;BME280;54257;54.496;18.412;2023-02-15T01:21:33;101433.64;;;3.56;87.56
67373;BME280;54257;54.496;18.412;2023-02-15T01:24:01;101435.70;;;3.54;87.72
67373;BME280;54257;54.496;18.412;2023-02-15T01:26:29;101432.61;;;3.51;87.72
67373;BME280;54257;54.496;18.412;2023-02-15T01:28:56;101430.36;;;3.50;87.66
67373;BME280;54257;54.496;18.412;2023-02-15T01:31:24;101430.42;;;3.49;87.72
67373;BME280;54257;54.496;18.412;2023-02-15T01:33:51;101424.28;;;3.50;87.84
67373;BME280;54257;54.496;18.412;2023-02-15T01:36:19;101419.97;;;3.51;87.66
67373;BME280;54257;54.496;18.412;2023-02-15T01:38:46;101420.23;;;3.50;87.68
67373;BME280;54257;54.496;18.412;2023-02-15T01:41:13;101423.11;;;3.53;87.85
67373;BME280;54257;54.496;18.412;2023-02-15T01:43:50;101420.03;;;3.50;87.54
67373;BME280;54257;54.496;18.412;2023-02-15T01:46:21;101415.20;;;3.48;87.38
67373;BME280;54257;54.496;18.412;2023-02-15T01:48:54;101415.42;;;3.47;87.41
67373;BME280;54257;54.496;18.412;2023-02-15T01:51:24;101417.43;;;3.51;87.66
67373;BME280;54257;54.496;18.412;2023-02-15T01:54:02;101414.22;;;3.54;87.71
67373;BME280;54257;54.496;18.412;2023-02-15T01:56:35;101417.29;;;3.56;87.68
67373;BME280;54257;54.496;18.412;2023-02-15T01:59:07;101415.64;;;3.59;87.81
67373;BME280;54257;54.496;18.412;2023-02-15T02:01:37;101405.20;;;3.62;87.88
67373;BME280;54257;54.496;18.412;2023-02-15T02:04:08;101402.98;;;3.62;87.81
67373;BME280;54257;54.496;18.412;2023-02-15T02:06:39;101406.85;;;3.62;87.71
67373;BME280;54257;54.496;18.412;2023-02-15T02:09:07;101399.70;;;3.59;87.56
67373;BME280;54257;54.496;18.412;2023-02-15T02:11:34;101403.54;;;3.60;87.83
67373;BME280;54257;54.496;18.412;2023-02-15T02:14:03;101399.03;;;3.61;87.66
67373;BME280;54257;54.496;18.412;2023-02-15T02:22:23;101392.94;;;3.53;86.91
67373;BME280;54257;54.496;18.412;2023-02-15T02:27:41;101384.17;;;3.49;87.23
67373;BME280;54257;54.496;18.412;2023-02-15T02:33:42;101377.98;;;3.52;87.58
67373;BME280;54257;54.496;18.412;2023-02-15T02:42:48;101369.25;;;3.43;87.43
67373;BME280;54257;54.496;18.412;2023-02-15T02:48:12;101369.70;;;3.52;87.82
67373;BME280;54257;54.496;18.412;2023-02-15T02:50:42;101366.27;;;3.54;87.66
67373;BME280;54257;54.496;18.412;2023-02-15T02:53:10;101366.22;;;3.56;87.76
67373;BME280;54257;54.496;18.412;2023-02-15T02:55:55;101366.03;;;3.60;88.11
67373;BME280;54257;54.496;18.412;2023-02-15T02:58:31;101364.44;;;3.64;88.01
67373;BME280;54257;54.496;18.412;2023-02-15T03:01:09;101367.21;;;3.68;87.79
67373;BME280;54257;54.496;18.412;2023-02-15T03:03:49;101364.29;;;3.67;87.87
67373;BME280;54257;54.496;18.412;2023-02-15T03:06:26;101367.45;;;3.59;87.21
67373;BME280;54257;54.496;18.412;2023-02-15T03:09:00;101365.70;;;3.55;87.49
67373;BME280;54257;54.496;18.412;2023-02-15T03:11:28;101365.80;;;3.54;87.63
67373;BME280;54257;54.496;18.412;2023-02-15T03:13:56;101364.19;;;3.53;87.87
67373;BME280;54257;54.496;18.412;2023-02-15T03:16:25;101363.54;;;3.51;87.74
67373;BME280;54257;54.496;18.412;2023-02-15T03:19:05;101360.96;;;3.48;87.59
67373;BME280;54257;54.496;18.412;2023-02-15T03:24:10;101359.50;;;3.41;87.64
67373;BME280;54257;54.496;18.412;2023-02-15T03:26:40;101353.78;;;3.39;87.84
67373;BME280;54257;54.496;18.412;2023-02-15T03:29:12;101355.59;;;3.38;88.03
67373;BME280;54257;54.496;18.412;2023-02-15T03:31:43;101352.66;;;3.40;88.27
67373;BME280;54257;54.496;18.412;2023-02-15T03:34:13;101348.95;;;3.40;88.21
67373;BME280;54257;54.496;18.412;2023-02-15T03:39:32;101344.21;;;3.35;88.05
67373;BME280;54257;54.496;18.412;2023-02-15T03:42:22;101345.31;;;3.31;88.09
67373;BME280;54257;54.496;18.412;2023-02-15T03:44:58;101345.05;;;3.30;88.29
67373;BME280;54257;54.496;18.412;2023-02-15T03:47:31;101342.81;;;3.27;88.25
67373;BME280;54257;54.496;18.412;2023-02-15T03:50:05;101341.35;;;3.25;88.29
67373;BME280;54257;54.496;18.412;2023-02-15T03:52:59;101337.23;;;3.22;88.34
67373;BME280;54257;54.496;18.412;2023-02-15T03:55:27;101338.90;;;3.19;88.45
67373;BME280;54257;54.496;18.412;2023-02-15T03:57:55;101338.55;;;3.19;88.73
67373;BME280;54257;54.496;18.412;2023-02-15T04:00:49;101335.42;;;3.17;88.65
67373;BME280;54257;54.496;18.412;2023-02-15T04:03:43;101337.11;;;3.15;88.67
67373;BME280;54257;54.496;18.412;2023-02-15T04:06:12;101338.89;;;3.14;88.84
67373;BME280;54257;54.496;18.412;2023-02-15T04:08:39;101337.05;;;3.14;88.94
67373;BME280;54257;54.496;18.412;2023-02-15T04:11:24;101334.59;;;3.15;89.02
67373;BME280;54257;54.496;18.412;2023-02-15T04:13:52;101335.23;;;3.15;89.05
67373;BME280;54257;54.496;18.412;2023-02-15T04:16:23;101332.19;;;3.15;89.11
67373;BME280;54257;54.496;18.412;2023-02-15T04:18:51;101334.42;;;3.15;89.22
67373;BME280;54257;54.496;18.412;2023-02-15T04:21:37;101327.05;;;3.14;88.99
67373;BME280;54257;54.496;18.412;2023-02-15T04:24:23;101328.77;;;3.14;89.22
67373;BME280;54257;54.496;18.412;2023-02-15T04:27:08;101324.75;;;3.15;89.17
67373;BME280;54257;54.496;18.412;2023-02-15T04:29:36;101323.15;;;3.16;89.41
67373;BME280;54257;54.496;18.412;2023-02-15T04:32:03;101322.97;;;3.20;89.77
67373;BME280;54257;54.496;18.412;2023-02-15T04:34:30;101322.23;;;3.25;89.90
67373;BME280;54257;54.496;18.412;2023-02-15T04:36:57;101321.48;;;3.28;89.86
67373;BME280;54257;54.496;18.412;2023-02-15T04:39:24;101316.73;;;3.28;89.57
67373;BME280;54257;54.496;18.412;2023-02-15T04:41:51;101317.17;;;3.27;89.52
67373;BME280;54257;54.496;18.412;2023-02-15T04:44:18;101311.02;;;3.26;89.52
67373;BME280;54257;54.496;18.412;2023-02-15T04:46:45;101306.59;;;3.23;89.35
67373;BME280;54257;54.496;18.412;2023-02-15T04:49:12;101304.61;;;3.21;89.38
67373;BME280;54257;54.496;18.412;2023-02-15T04:51:39;101307.51;;;3.19;89.55
67373;BME280;54257;54.496;18.412;2023-02-15T04:54:06;101309.74;;;3.22;89.84
67373;BME280;54257;54.496;18.412;2023-02-15T04:56:33;101305.23;;;3.25;90.00
67373;BME280;54257;54.496;18.412;2023-02-15T04:59:02;101304.85;;;3.27;89.88
67373;BME280;54257;54.496;18.412;2023-02-15T05:01:29;101305.66;;;3.26;89.62
67373;BME280;54257;54.496;18.412;2023-02-15T05:03:56;101299.82;;;3.25;89.61
67373;BME280;54257;54.496;18.412;2023-02-15T05:06:23;101299.29;;;3.25;89.70
67373;BME280;54257;54.496;18.412;2023-02-15T05:08:51;101299.11;;;3.22;89.46
67373;BME280;54257;54.496;18.412;2023-02-15T05:11:18;101296.71;;;3.19;89.55
67373;BME280;54257;54.496;18.412;2023-02-15T05:13:45;101294.95;;;3.18;89.64
67373;BME280;54257;54.496;18.412;2023-02-15T05:16:12;101292.98;;;3.19;89.70
67373;BME280;54257;54.496;18.412;2023-02-15T05:18:39;101289.64;;;3.17;89.57
67373;BME280;54257;54.496;18.412;2023-02-15T05:21:07;101289.41;;;3.14;89.57
67373;BME280;54257;54.496;18.412;2023-02-15T05:23:36;101290.63;;;3.09;89.37
67373;BME280;54257;54.496;18.412;2023-02-15T05:26:03;101288.36;;;3.03;89.38
67373;BME280;54257;54.496;18.412;2023-02-15T05:28:48;101288.10;;;2.97;89.45
67373;BME280;54257;54.496;18.412;2023-02-15T05:31:19;101286.55;;;2.94;89.55
67373;BME280;54257;54.496;18.412;2023-02-15T05:33:46;101284.41;;;2.92;89.71
67373;BME280;54257;54.496;18.412;2023-02-15T05:36:17;101286.63;;;2.93;89.80
67373;BME280;54257;54.496;18.412;2023-02-15T05:38:44;101287.21;;;2.94;90.00
67373;BME280;54257;54.496;18.412;2023-02-15T05:41:11;101283.35;;;2.92;90.01
67373;BME280;54257;54.496;18.412;2023-02-15T05:43:39;101280.23;;;2.93;90.04
67373;BME280;54257;54.496;18.412;2023-02-15T05:46:09;101279.95;;;2.94;90.14
67373;BME280;54257;54.496;18.412;2023-02-15T05:48:37;101277.42;;;2.96;90.28
67373;BME280;54257;54.496;18.412;2023-02-15T05:51:10;101273.96;;;2.97;90.42
67373;BME280;54257;54.496;18.412;2023-02-15T05:53:39;101274.23;;;2.99;90.43
67373;BME280;54257;54.496;18.412;2023-02-15T05:56:10;101275.51;;;3.00;90.42
67373;BME280;54257;54.496;18.412;2023-02-15T05:58:40;101278.13;;;3.01;90.51
67373;BME280;54257;54.496;18.412;2023-02-15T06:01:15;101273.89;;;3.04;90.57
67373;BME280;54257;54.496;18.412;2023-02-15T06:03:49;101274.05;;;3.03;90.40
67373;BME280;54257;54.496;18.412;2023-02-15T06:06:17;101269.61;;;3.03;90.45
67373;BME280;54257;54.496;18.412;2023-02-15T06:08:46;101268.77;;;3.00;90.45
67373;BME280;54257;54.496;18.412;2023-02-15T06:11:13;101263.89;;;3.01;90.61
67373;BME280;54257;54.496;18.412;2023-02-15T06:13:40;101264.70;;;3.00;90.55
67373;BME280;54257;54.496;18.412;2023-02-15T06:16:08;101264.82;;;2.99;90.68
67373;BME280;54257;54.496;18.412;2023-02-15T06:18:35;101269.09;;;3.00;90.73
67373;BME280;54257;54.496;18.412;2023-02-15T06:21:02;101268.46;;;2.98;90.64
67373;BME280;54257;54.496;18.412;2023-02-15T06:23:29;101266.65;;;2.97;90.70
67373;BME280;54257;54.496;18.412;2023-02-15T06:25:56;101269.14;;;2.93;90.81
67373;BME280;54257;54.496;18.412;2023-02-15T06:28:25;101266.98;;;2.89;90.90
67373;BME280;54257;54.496;18.412;2023-02-15T06:30:53;101266.23;;;2.83;91.05
67373;BME280;54257;54.496;18.412;2023-02-15T06:33:20;101266.45;;;2.78;91.05
67373;BME280;54257;54.496;18.412;2023-02-15T06:35:47;101267.66;;;2.74;91.42
67373;BME280;54257;54.496;18.412;2023-02-15T06:38:14;101265.01;;;2.72;91.46
67373;BME280;54257;54.496;18.412;2023-02-15T06:40:41;101266.86;;;2.72;91.58
67373;BME280;54257;54.496;18.412;2023-02-15T06:43:08;101265.22;;;2.73;91.63
67373;BME280;54257;54.496;18.412;2023-02-15T06:45:36;101261.14;;;2.75;91.83
67373;BME280;54257;54.496;18.412;2023-02-15T06:48:03;101265.48;;;2.77;91.81
67373;BME280;54257;54.496;18.412;2023-02-15T06:50:34;101260.77;;;2.79;91.89
67373;BME280;54257;54.496;18.412;2023-02-15T06:53:01;101263.78;;;2.82;91.84
67373;BME280;54257;54.496;18.412;2023-02-15T06:55:29;101257.96;;;2.83;91.93
67373;BME280;54257;54.496;18.412;2023-02-15T06:57:59;101256.54;;;2.84;91.80
67373;BME280;54257;54.496;18.412;2023-02-15T07:00:26;101252.48;;;2.86;91.95
67373;BME280;54257;54.496;18.412;2023-02-15T07:02:54;101254.60;;;2.88;92.12
67373;BME280;54257;54.496;18.412;2023-02-15T07:05:23;101252.59;;;2.88;92.20
67373;BME280;54257;54.496;18.412;2023-02-15T07:07:51;101249.02;;;2.88;92.10
67373;BME280;54257;54.496;18.412;2023-02-15T07:10:19;101247.26;;;2.89;92.27
67373;BME280;54257;54.496;18.412;2023-02-15T07:12:46;101245.85;;;2.91;92.40
67373;BME280;54257;54.496;18.412;2023-02-15T07:15:15;101244.41;;;2.92;92.26
67373;BME280;54257;54.496;18.412;2023-02-15T07:17:43;101242.98;;;2.93;92.24
67373;BME280;54257;54.496;18.412;2023-02-15T07:20:14;101240.87;;;2.97;92.41
67373;BME280;54257;54.496;18.412;2023-02-15T07:22:42;101239.48;;;2.99;92.27
67373;BME280;54257;54.496;18.412;2023-02-15T07:25:10;101238.95;;;2.99;92.37
67373;BME280;54257;54.496;18.412;2023-02-15T07:27:38;101237.71;;;2.98;92.45
67373;BME280;54257;54.496;18.412;2023-02-15T07:30:08;101238.17;;;2.94;92.42
67373;BME280;54257;54.496;18.412;2023-02-15T07:32:36;101236.39;;;2.91;92.56
67373;BME280;54257;54.496;18.412;2023-02-15T07:35:06;101235.89;;;2.88;92.58
67373;BME280;54257;54.496;18.412;2023-02-15T07:37:33;101238.57;;;2.83;92.89
67373;BME280;54257;54.496;18.412;2023-02-15T07:40:01;101232.95;;;2.79;93.07
67373;BME280;54257;54.496;18.412;2023-02-15T07:42:30;101234.52;;;2.78;92.86
67373;BME280;54257;54.496;18.412;2023-02-15T07:44:57;101229.34;;;2.79;93.17
67373;BME280;54257;54.496;18.412;2023-02-15T07:47:24;101220.92;;;2.79;93.37
67373;BME280;54257;54.496;18.412;2023-02-15T07:49:53;101223.37;;;2.80;93.40
67373;BME280;54257;54.496;18.412;2023-02-15T07:52:20;101218.02;;;2.83;93.47
67373;BME280;54257;54.496;18.412;2023-02-15T07:54:47;101220.43;;;2.87;93.50
67373;BME280;54257;54.496;18.412;2023-02-15T07:57:13;101215.46;;;2.88;93.54
67373;BME280;54257;54.496;18.412;2023-02-15T07:59:41;101213.65;;;2.91;93.60
67373;BME280;54257;54.496;18.412;2023-02-15T08:02:10;101208.63;;;2.94;93.63
67373;BME280;54257;54.496;18.412;2023-02-15T08:04:37;101205.14;;;2.95;93.55
67373;BME280;54257;54.496;18.412;2023-02-15T08:07:09;101205.34;;;2.95;93.46
67373;BME280;54257;54.496;18.412;2023-02-15T08:09:35;101203.00;;;2.96;93.53
67373;BME280;54257;54.496;18.412;2023-02-15T08:12:03;101198.09;;;2.96;93.63
67373;BME280;54257;54.496;18.412;2023-02-15T08:14:31;101200.10;;;2.95;93.43
67373;BME280;54257;54.496;18.412;2023-02-15T08:17:00;101200.91;;;2.95;93.34
67373;BME280;54257;54.496;18.412;2023-02-15T08:19:32;101194.19;;;2.95;93.44
67373;BME280;54257;54.496;18.412;2023-02-15T08:22:05;101187.15;;;2.96;93.39
67373;BME280;54257;54.496;18.412;2023-02-15T08:24:35;101188.41;;;2.97;93.32
67373;BME280;54257;54.496;18.412;2023-02-15T08:27:07;101188.17;;;2.99;93.40
67373;BME280;54257;54.496;18.412;2023-02-15T08:29:36;101188.73;;;2.99;93.20
67373;BME280;54257;54.496;18.412;2023-02-15T08:32:09;101187.92;;;3.00;93.13
67373;BME280;54257;54.496;18.412;2023-02-15T08:34:40;101186.17;;;3.02;93.09
67373;BME280;54257;54.496;18.412;2023-02-15T08:37:08;101184.83;;;3.02;93.02
67373;BME280;54257;54.496;18.412;2023-02-15T08:39:36;101180.67;;;3.02;92.83
67373;BME280;54257;54.496;18.412;2023-02-15T08:42:03;101183.20;;;3.02;92.78
67373;BME280;54257;54.496;18.412;2023-02-15T08:44:30;101183.31;;;3.04;92.75
67373;BME280;54257;54.496;18.412;2023-02-15T08:46:57;101182.12;;;3.07;93.03
67373;BME280;54257;54.496;18.412;2023-02-15T08:49:29;101179.05;;;3.09;92.90
67373;BME280;54257;54.496;18.412;2023-02-15T08:51:56;101178.08;;;3.12;92.77
67373;BME280;54257;54.496;18.412;2023-02-15T08:54:23;101176.67;;;3.14;92.64
67373;BME280;54257;54.496;18.412;2023-02-15T08:56:50;101177.45;;;3.15;92.50
67373;BME280;54257;54.496;18.412;2023-02-15T08:59:22;101172.60;;;3.18;92.35
67373;BME280;54257;54.496;18.412;2023-02-15T09:01:50;101167.36;;;3.18;91.62
67373;BME280;54257;54.496;18.412;2023-02-15T09:04:19;101167.92;;;3.17;91.68
67373;BME280;54257;54.496;18.412;2023-02-15T09:06:48;101164.41;;;3.17;91.46
67373;BME280;54257;54.496;18.412;2023-02-15T09:09:16;101165.46;;;3.18;91.06
67373;BME280;54257;54.496;18.412;2023-02-15T09:11:45;101161.96;;;3.19;91.19
67373;BME280;54257;54.496;18.412;2023-02-15T09:14:16;101162.54;;;3.17;90.62
67373;BME280;54257;54.496;18.412;2023-02-15T09:16:45;101155.79;;;3.12;90.61
67373;BME280;54257;54.496;18.412;2023-02-15T09:19:16;101157.09;;;3.11;90.87
67373;BME280;54257;54.496;18.412;2023-02-15T09:21:45;101155.27;;;3.09;90.98
67373;BME280;54257;54.496;18.412;2023-02-15T09:24:14;101150.15;;;3.08;90.91
67373;BME280;54257;54.496;18.412;2023-02-15T09:26:44;101151.06;;;3.06;90.40
67373;BME280;54257;54.496;18.412;2023-02-15T09:29:12;101148.88;;;3.07;90.48
67373;BME280;54257;54.496;18.412;2023-02-15T09:31:47;101146.42;;;3.08;90.20
67373;BME280;54257;54.496;18.412;2023-02-15T09:34:17;101140.97;;;3.10;89.57
67373;BME280;54257;54.496;18.412;2023-02-15T09:36:46;101139.63;;;3.13;89.72
67373;BME280;54257;54.496;18.412;2023-02-15T09:50:48;101136.30;;;3.34;88.73
67373;BME280;54257;54.496;18.412;2023-02-15T10:01:20;101125.75;;;3.22;87.12
67373;BME280;54257;54.496;18.412;2023-02-15T10:10:24;101120.95;;;3.21;87.61
67373;BME280;54257;54.496;18.412;2023-02-15T10:15:57;101119.94;;;3.37;88.21
67373;BME280;54257;54.496;18.412;2023-02-15T10:24:12;101114.32;;;3.52;86.65
67373;BME280;54257;54.496;18.412;2023-02-15T10:26:46;101112.85;;;3.50;86.33
67373;BME280;54257;54.496;18.412;2023-02-15T10:29:49;101114.61;;;3.46;85.24
67373;BME280;54257;54.496;18.412;2023-02-15T10:32:25;101112.30;;;3.42;85.31
67373;BME280;54257;54.496;18.412;2023-02-15T10:35:08;101109.39;;;3.38;85.68
67373;BME280;54257;54.496;18.412;2023-02-15T10:37:56;101103.23;;;3.37;85.98
67373;BME280;54257;54.496;18.412;2023-02-15T10:40:51;101105.81;;;3.38;86.52
67373;BME280;54257;54.496;18.412;2023-02-15T10:49:25;101098.19;;;3.43;85.95
67373;BME280;54257;54.496;18.412;2023-02-15T10:55:05;101091.55;;;3.53;86.17
67373;BME280;54257;54.496;18.412;2023-02-15T10:57:43;101091.33;;;3.54;85.49
67373;BME280;54257;54.496;18.412;2023-02-15T11:00:28;101087.10;;;3.54;85.18
67373;BME280;54257;54.496;18.412;2023-02-15T11:06:25;101077.48;;;3.55;85.32
67373;BME280;54257;54.496;18.412;2023-02-15T11:09:02;101077.85;;;3.52;84.99
67373;BME280;54257;54.496;18.412;2023-02-15T11:11:35;101072.08;;;3.49;85.06
67373;BME280;54257;54.496;18.412;2023-02-15T11:14:13;101067.82;;;3.46;84.91
67373;BME280;54257;54.496;18.412;2023-02-15T11:16:45;101067.31;;;3.46;85.56
67373;BME280;54257;54.496;18.412;2023-02-15T11:19:26;101061.53;;;3.48;85.75
67373;BME280;54257;54.496;18.412;2023-02-15T11:21:59;101059.61;;;3.52;85.58
67373;BME280;54257;54.496;18.412;2023-02-15T11:24:31;101057.89;;;3.57;85.63
67373;BME280;54257;54.496;18.412;2023-02-15T11:32:37;101053.98;;;3.79;84.65
67373;BME280;54257;54.496;18.412;2023-02-15T11:37:59;101043.40;;;3.88;84.12
67373;BME280;54257;54.496;18.412;2023-02-15T11:41:03;101037.65;;;3.90;83.71
67373;BME280;54257;54.496;18.412;2023-02-15T11:43:28;101037.44;;;3.92;83.90
67373;BME280;54257;54.496;18.412;2023-02-15T11:45:58;101036.33;;;3.93;83.87
67373;BME280;54257;54.496;18.412;2023-02-15T11:48:25;101031.50;;;3.92;83.73
67373;BME280;54257;54.496;18.412;2023-02-15T11:50:53;101032.95;;;3.91;83.59
67373;BME280;54257;54.496;18.412;2023-02-15T11:53:22;101028.42;;;3.89;83.36
67373;BME280;54257;54.496;18.412;2023-02-15T11:55:55;101020.19;;;3.90;83.45
67373;BME280;54257;54.496;18.412;2023-02-15T11:59:14;101017.27;;;3.94;83.82
67373;BME280;54257;54.496;18.412;2023-02-15T12:01:46;101015.88;;;4.02;84.04
67373;BME280;54257;54.496;18.412;2023-02-15T12:04:28;101017.77;;;4.09;84.02
67373;BME280;54257;54.496;18.412;2023-02-15T12:09:46;101013.09;;;4.30;84.51
67373;BME280;54257;54.496;18.412;2023-02-15T12:12:32;101011.77;;;4.36;83.22
67373;BME280;54257;54.496;18.412;2023-02-15T12:15:02;101009.23;;;4.33;82.56
67373;BME280;54257;54.496;18.412;2023-02-15T12:17:51;101006.20;;;4.33;83.00
67373;BME280;54257;54.496;18.412;2023-02-15T12:20:29;101002.48;;;4.36;83.41
67373;BME280;54257;54.496;18.412;2023-02-15T12:23:03;101001.61;;;4.39;82.97
67373;BME280;54257;54.496;18.412;2023-02-15T12:25:42;100997.33;;;4.40;82.95
67373;BME280;54257;54.496;18.412;2023-02-15T12:28:42;100994.80;;;4.44;83.15
67373;BME280;54257;54.496;18.412;2023-02-15T12:31:33;100994.23;;;4.42;82.45
67373;BME280;54257;54.496;18.412;2023-02-15T12:34:10;100989.17;;;4.42;82.36
67373;BME280;54257;54.496;18.412;2023-02-15T12:36:47;100989.99;;;4.42;82.10
67373;BME280;54257;54.496;18.412;2023-02-15T12:39:26;100984.19;;;4.47;82.58
67373;BME280;54257;54.496;18.412;2023-02-15T12:44:30;100975.32;;;4.61;81.90
67373;BME280;54257;54.496;18.412;2023-02-15T12:49:44;100970.73;;;4.78;82.02
67373;BME280;54257;54.496;18.412;2023-02-15T12:54:47;100966.92;;;4.89;80.89
67373;BME280;54257;54.496;18.412;2023-02-15T13:00:11;100966.43;;;4.92;80.55
67373;BME280;54257;54.496;18.412;2023-02-15T13:02:54;100960.91;;;4.94;80.77
67373;BME280;54257;54.496;18.412;2023-02-15T13:05:37;100960.58;;;4.94;80.38
67373;BME280;54257;54.496;18.412;2023-02-15T13:10:56;100957.25;;;4.98;80.46
67373;BME280;54257;54.496;18.412;2023-02-15T13:13:27;100953.62;;;5.03;80.81
67373;BME280;54257;54.496;18.412;2023-02-15T13:16:02;100949.77;;;5.10;80.80
67373;BME280;54257;54.496;18.412;2023-02-15T13:21:11;100947.28;;;5.32;80.95
67373;BME280;54257;54.496;18.412;2023-02-15T13:23:46;100945.41;;;5.45;80.84
67373;BME280;54257;54.496;18.412;2023-02-15T13:26:19;100941.37;;;5.55;80.13
67373;BME280;54257;54.496;18.412;2023-02-15T13:28:51;100943.06;;;5.61;78.76
67373;BME280;54257;54.496;18.412;2023-02-15T13:31:23;100941.16;;;5.64;78.69
67373;BME280;54257;54.496;18.412;2023-02-15T13:34:01;100939.64;;;5.68;78.75
67373;BME280;54257;54.496;18.412;2023-02-15T13:37:17;100935.91;;;5.67;78.06
67373;BME280;54257;54.496;18.412;2023-02-15T13:39:29;100934.23;;;5.64;78.40
67373;BME280;54257;54.496;18.412;2023-02-15T13:42:17;100931.67;;;5.61;78.12
67373;BME280;54257;54.496;18.412;2023-02-15T13:50:41;100931.29;;;5.60;79.33
67373;BME280;54257;54.496;18.412;2023-02-15T13:59:16;100916.15;;;5.72;78.64
67373;BME280;54257;54.496;18.412;2023-02-15T14:02:24;100906.73;;;5.67;78.17
67373;BME280;54257;54.496;18.412;2023-02-15T14:05:28;100902.61;;;5.59;78.34
67373;BME280;54257;54.496;18.412;2023-02-15T14:16:40;100892.44;;;5.62;78.51
67373;BME280;54257;54.496;18.412;2023-02-15T14:24:54;100883.48;;;5.76;78.66
67373;BME280;54257;54.496;18.412;2023-02-15T14:30:51;100881.66;;;5.74;78.50
67373;BME280;54257;54.496;18.412;2023-02-15T14:33:41;100882.21;;;5.71;78.86
67373;BME280;54257;54.496;18.412;2023-02-15T14:36:18;100879.19;;;5.69;78.71
67373;BME280;54257;54.496;18.412;2023-02-15T14:41:49;100879.60;;;5.53;78.04
67373;BME280;54257;54.496;18.412;2023-02-15T14:49:32;100871.83;;;5.31;78.86
67373;BME280;54257;54.496;18.412;2023-02-15T14:52:09;100867.89;;;5.27;79.15
67373;BME280;54257;54.496;18.412;2023-02-15T15:02:23;100857.91;;;5.18;79.95
67373;BME280;54257;54.496;18.412;2023-02-15T15:07:24;100857.04;;;5.20;80.08
67373;BME280;54257;54.496;18.412;2023-02-15T15:12:45;100855.73;;;5.18;80.20
67373;BME280;54257;54.496;18.412;2023-02-15T15:15:38;100854.89;;;5.15;79.62
67373;BME280;54257;54.496;18.412;2023-02-15T15:18:45;100856.55;;;5.11;79.94
67373;BME280;54257;54.496;18.412;2023-02-15T15:22:12;100849.78;;;5.08;80.11
67373;BME280;54257;54.496;18.412;2023-02-15T15:32:59;100844.13;;;4.78;80.16
67373;BME280;54257;54.496;18.412;2023-02-15T15:41:45;100832.35;;;4.48;80.66
67373;BME280;54257;54.496;18.412;2023-02-15T15:50:15;100825.77;;;4.33;81.43
67373;BME280;54257;54.496;18.412;2023-02-15T15:52:52;100829.16;;;4.33;81.70
67373;BME280;54257;54.496;18.412;2023-02-15T15:55:22;100824.75;;;4.33;81.62
67373;BME280;54257;54.496;18.412;2023-02-15T15:57:57;100824.16;;;4.35;81.72
67373;BME280;54257;54.496;18.412;2023-02-15T16:03:02;100809.40;;;4.40;81.81
67373;BME280;54257;54.496;18.412;2023-02-15T16:05:38;100803.91;;;4.41;82.00
67373;BME280;54257;54.496;18.412;2023-02-15T16:08:08;100803.15;;;4.40;81.74
67373;BME280;54257;54.496;18.412;2023-02-15T16:10:35;100801.08;;;4.33;81.56